createdAt,value
2022-08-30T00:02:57.599Z,8.03
2022-08-30T00:08:01.137Z,8.80
2022-08-30T00:13:06.627Z,7.43
2022-08-30T00:18:10.194Z,11.70
2022-08-30T00:23:14.144Z,8.43
2022-08-30T00:28:18.505Z,11.90
2022-08-30T00:33:22.077Z,8.83
2022-08-30T00:38:25.106Z,9.87
2022-08-30T00:43:34.095Z,9.10
2022-08-30T00:48:43.964Z,7.47
2022-08-30T00:53:54.911Z,9.87
2022-08-30T00:59:01.753Z,12.10
2022-08-30T01:04:06.918Z,6.10
2022-08-30T01:09:10.358Z,6.83
2022-08-30T01:14:15.534Z,5.37
2022-08-30T01:19:35.454Z,7.83
2022-08-30T01:24:39.894Z,7.63
2022-08-30T01:29:45.198Z,7.53
2022-08-30T01:34:49.034Z,7.67
2022-08-30T01:39:53.359Z,7.80
2022-08-30T01:44:56.358Z,6.93
2022-08-30T01:49:59.394Z,11.30
2022-08-30T01:55:04.049Z,10.13
2022-08-30T02:00:09.780Z,12.77
2022-08-30T02:05:16.103Z,6.70
2022-08-30T02:10:20.835Z,12.10
2022-08-30T02:15:23.795Z,7.90
2022-08-30T02:20:26.902Z,9.60
2022-08-30T02:25:31.507Z,10.43
2022-08-30T02:30:34.994Z,7.40
2022-08-30T02:35:38.046Z,7.80
2022-08-30T02:40:42.586Z,9.97
2022-08-30T02:45:45.916Z,8.00
2022-08-30T02:50:50.648Z,6.43
2022-08-30T02:55:55.533Z,10.07
2022-08-30T03:01:01.804Z,7.70
2022-08-30T03:06:05.041Z,7.53
2022-08-30T03:11:10.836Z,11.03
2022-08-30T03:16:13.912Z,7.37
2022-08-30T03:21:18.045Z,8.03
2022-08-30T03:26:22.445Z,9.77
2022-08-30T03:31:25.446Z,7.83
2022-08-30T03:36:28.460Z,10.13
2022-08-30T03:41:33.187Z,9.90
2022-08-30T03:46:37.635Z,10.57
2022-08-30T03:51:40.665Z,9.17
2022-08-30T03:56:45.368Z,9.40
2022-08-30T04:01:48.421Z,7.90
2022-08-30T04:06:51.452Z,10.43
2022-08-30T04:11:55.799Z,10.03
2022-08-30T04:16:59.153Z,14.63
2022-08-30T04:22:02.129Z,8.50
2022-08-30T04:27:06.884Z,6.70
2022-08-30T04:32:09.891Z,8.73
2022-08-30T04:37:13.415Z,9.47
2022-08-30T04:42:18.657Z,14.20
2022-08-30T04:47:21.672Z,15.67
2022-08-30T04:52:25.151Z,8.00
2022-08-30T04:57:30.133Z,11.23
2022-08-30T05:02:33.174Z,10.70
2022-08-30T05:07:36.634Z,8.70
2022-08-30T05:12:42.424Z,10.90
2022-08-30T05:17:45.769Z,11.33
2022-08-30T05:22:53.511Z,13.30
2022-08-30T05:27:58.619Z,8.33
2022-08-30T05:33:02.367Z,9.27
2022-08-30T05:38:05.361Z,10.70
2022-08-30T05:43:11.734Z,10.50
2022-08-30T05:48:14.745Z,9.10
2022-08-30T05:53:17.840Z,8.60
2022-08-30T05:58:22.179Z,8.47
2022-08-30T06:03:25.802Z,12.97
2022-08-30T06:08:30.129Z,12.07
2022-08-30T06:13:34.559Z,9.90
2022-08-30T06:18:37.523Z,11.10
2022-08-30T06:23:40.540Z,9.50
2022-08-30T06:28:45.448Z,10.13
2022-08-30T06:33:49.236Z,9.27
2022-08-30T06:38:53.188Z,14.13
2022-08-30T06:43:59.495Z,8.90
2022-08-30T06:49:03.740Z,10.37
2022-08-30T06:54:12.034Z,7.87
2022-08-30T06:59:16.637Z,7.40
2022-08-30T07:04:19.642Z,6.97
2022-08-30T07:09:22.855Z,9.63
2022-08-30T07:14:28.091Z,9.67
2022-08-30T07:19:31.084Z,11.43
2022-08-30T07:24:34.062Z,9.17
2022-08-30T07:29:38.483Z,10.57
2022-08-30T07:34:41.777Z,7.60
2022-08-30T07:39:48.149Z,10.37
2022-08-30T07:44:56.517Z,11.30
2022-08-30T07:50:00.756Z,10.33
2022-08-30T07:55:04.525Z,11.77
2022-08-30T08:00:10.666Z,9.20
2022-08-30T08:05:18.182Z,8.57
2022-08-30T08:10:22.689Z,5.83
2022-08-30T08:15:27.812Z,7.43
2022-08-30T08:20:31.120Z,5.97
2022-08-30T08:25:35.442Z,5.60
2022-08-30T08:30:40.938Z,7.70
2022-08-30T08:35:45.693Z,7.70
2022-08-30T08:41:00.817Z,6.20
2022-08-30T08:46:12.191Z,5.80
2022-08-30T08:51:35.503Z,7.70
2022-08-30T08:56:39.517Z,12.32
2022-08-30T09:01:43.928Z,7.10
2022-08-30T09:06:53.850Z,10.27
2022-08-30T09:11:56.995Z,8.23
2022-08-30T09:17:03.290Z,6.63
2022-08-30T09:22:18.295Z,5.10
2022-08-30T09:27:25.574Z,4.75
2022-08-30T09:32:35.340Z,5.53
2022-08-30T09:37:42.265Z,8.23
2022-08-30T09:43:00.833Z,8.00
2022-08-30T09:48:27.922Z,4.20
2022-08-30T09:53:35.639Z,5.07
2022-08-30T09:58:56.632Z,4.53
2022-08-30T10:04:09.442Z,5.23
2022-08-30T10:09:25.351Z,3.60
2022-08-30T10:14:46.367Z,6.30
2022-08-30T10:20:04.442Z,6.75
2022-08-30T10:25:16.092Z,9.45
2022-08-30T10:30:19.874Z,6.22
2022-08-30T10:35:28.088Z,5.20
2022-08-30T10:40:52.266Z,6.87
2022-08-30T10:46:00.985Z,6.00
2022-08-30T10:51:11.538Z,6.40
2022-08-30T10:56:20.568Z,7.20
2022-08-30T11:01:37.808Z,6.28
2022-08-30T11:06:59.234Z,7.83
2022-08-30T11:12:32.353Z,8.50
2022-08-30T11:17:45.165Z,7.88
2022-08-30T11:23:22.877Z,5.95
2022-08-30T11:29:06.566Z,5.73
2022-08-30T11:34:11.193Z,4.95
2022-08-30T11:39:56.824Z,5.45
2022-08-30T11:45:37.026Z,4.85
2022-08-30T11:50:50.306Z,4.53
2022-08-30T11:56:08.781Z,5.20
2022-08-30T12:01:42.282Z,5.30
2022-08-30T12:06:53.001Z,4.13
2022-08-30T12:11:59.866Z,6.30
2022-08-30T12:17:22.153Z,5.77
2022-08-30T12:22:25.326Z,4.80
2022-08-30T12:27:33.105Z,4.87
2022-08-30T12:32:44.928Z,3.83
2022-08-30T12:37:58.293Z,5.67
2022-08-30T12:43:17.343Z,5.33
2022-08-30T12:48:21.873Z,6.15
2022-08-30T12:53:32.894Z,5.63
2022-08-30T12:58:44.297Z,4.43
2022-08-30T13:04:03.437Z,5.20
2022-08-30T13:09:06.608Z,5.03
2022-08-30T13:14:32.939Z,5.97
2022-08-30T13:19:38.240Z,5.63
2022-08-30T13:24:41.221Z,6.37
2022-08-30T13:29:46.114Z,5.27
2022-08-30T13:34:49.263Z,8.13
2022-08-30T13:39:52.239Z,7.10
2022-08-30T13:44:57.525Z,6.63
2022-08-30T13:50:01.401Z,8.60
2022-08-30T13:55:04.876Z,5.00
2022-08-30T14:00:14.756Z,4.87
2022-08-30T14:05:46.724Z,5.30
2022-08-30T14:10:47.370Z,5.60
2022-08-30T14:16:26.507Z,6.23
2022-08-30T14:21:16.866Z,6.60
2022-08-30T14:26:32.567Z,4.33
2022-08-30T14:31:39.106Z,5.60
2022-08-30T14:36:44.606Z,4.90
2022-08-30T14:41:51.379Z,7.60
2022-08-30T14:46:57.316Z,5.13
2022-08-30T14:52:00.625Z,4.27
2022-08-30T14:57:03.697Z,5.37
2022-08-30T15:02:08.608Z,4.50
2022-08-30T15:07:13.871Z,5.60
2022-08-30T15:12:17.012Z,4.10
2022-08-30T15:17:21.484Z,5.43
2022-08-30T15:22:24.698Z,7.13
2022-08-30T15:27:27.715Z,7.10
2022-08-30T15:32:33.180Z,6.70
2022-08-30T15:37:37.647Z,6.80
2022-08-30T15:42:40.649Z,4.50
2022-08-30T15:47:46.740Z,4.13
2022-08-30T15:52:51.886Z,4.50
2022-08-30T15:57:54.966Z,4.57
2022-08-30T16:02:59.259Z,4.97
2022-08-30T16:08:02.280Z,4.43
2022-08-30T16:13:05.313Z,4.37
2022-08-30T16:18:13.445Z,4.00
2022-08-30T16:23:16.718Z,5.53
2022-08-30T16:28:19.813Z,5.37
2022-08-30T16:33:26.137Z,6.50
2022-08-30T16:38:29.679Z,4.30
2022-08-30T16:43:33.055Z,4.93
2022-08-30T16:48:39.404Z,4.80
2022-08-30T16:53:44.944Z,4.50
2022-08-30T16:58:49.403Z,4.47
2022-08-30T17:03:54.243Z,4.60
2022-08-30T17:08:57.504Z,4.47
2022-08-30T17:14:02.281Z,4.37
2022-08-30T17:19:08.792Z,4.53
2022-08-30T17:24:11.957Z,6.40
2022-08-30T17:29:15.882Z,4.10
2022-08-30T17:34:21.835Z,6.03
2022-08-30T17:39:25.367Z,4.80
2022-08-30T17:44:29.746Z,7.77
2022-08-30T17:49:34.429Z,4.60
2022-08-30T17:54:37.688Z,4.70
2022-08-30T17:59:41.289Z,4.70
2022-08-30T18:04:46.674Z,4.87
2022-08-30T18:09:49.853Z,5.03
2022-08-30T18:14:54.154Z,4.40
2022-08-30T18:19:58.785Z,7.10
2022-08-30T18:25:06.301Z,5.50
2022-08-30T18:30:11.440Z,4.97
2022-08-30T18:35:16.288Z,4.53
2022-08-30T18:40:19.795Z,6.37
2022-08-30T18:45:23.919Z,6.80
2022-08-30T18:50:28.650Z,4.10
2022-08-30T18:55:31.691Z,5.20
2022-08-30T19:00:36.032Z,4.57
2022-08-30T19:05:41.521Z,4.10
2022-08-30T19:10:45.043Z,4.47
2022-08-30T19:15:48.040Z,4.60
2022-08-30T19:20:52.635Z,4.80
2022-08-30T19:25:56.224Z,4.73
2022-08-30T19:31:01.266Z,5.57
2022-08-30T19:36:08.088Z,5.43
2022-08-30T19:41:12.522Z,5.70
2022-08-30T19:46:16.191Z,4.77
2022-08-30T19:51:21.260Z,5.47
2022-08-30T19:56:25.079Z,6.27
2022-08-30T20:01:33.265Z,5.00
2022-08-30T20:06:38.499Z,5.23
2022-08-30T20:11:42.329Z,5.70
2022-08-30T20:16:47.468Z,8.37
2022-08-30T20:21:51.896Z,5.57
2022-08-30T20:26:57.497Z,5.23
2022-08-30T20:32:01.699Z,5.37
2022-08-30T20:37:08.184Z,7.60
2022-08-30T20:42:11.203Z,5.90
2022-08-30T20:47:14.315Z,5.17
2022-08-30T20:52:19.197Z,5.80
2022-08-30T20:57:24.461Z,5.50
2022-08-30T21:02:28.130Z,6.00
2022-08-30T21:07:32.711Z,6.33
2022-08-30T21:12:36.931Z,11.37
2022-08-30T21:17:40.185Z,6.93
2022-08-30T21:22:46.263Z,8.13
2022-08-30T21:27:49.231Z,5.97
2022-08-30T21:32:52.540Z,6.73
2022-08-30T21:37:56.902Z,6.10
2022-08-30T21:43:05.045Z,7.47
2022-08-30T21:48:09.608Z,5.20
2022-08-30T21:53:15.417Z,5.50
2022-08-30T21:58:20.126Z,5.57
2022-08-30T22:03:23.119Z,8.33
2022-08-30T22:08:27.459Z,7.33
2022-08-30T22:13:30.419Z,6.67
2022-08-30T22:18:33.648Z,6.10
2022-08-30T22:23:38.580Z,8.90
2022-08-30T22:28:41.621Z,7.47
2022-08-30T22:33:45.746Z,6.10
2022-08-30T22:38:52.610Z,5.83
2022-08-30T22:43:56.194Z,5.20
2022-08-30T22:49:00.103Z,5.00
2022-08-30T22:54:05.626Z,8.13
2022-08-30T22:59:08.834Z,4.57
2022-08-30T23:04:12.703Z,5.10
2022-08-30T23:09:17.024Z,7.80
2022-08-30T23:14:20.000Z,4.03
2022-08-30T23:19:23.709Z,4.43
2022-08-30T23:24:49.022Z,6.27
2022-08-30T23:30:09.517Z,7.93
2022-08-30T23:35:31.923Z,5.50
2022-08-30T23:40:53.813Z,5.47
2022-08-30T23:46:17.044Z,5.90
2022-08-30T23:51:39.852Z,5.40
2022-08-30T23:57:01.768Z,5.80
